Track Божко Екатерина

Time Latitude Longitude Accuracy (66% radius in meters) Altitude (meters) Speed (km/hour) Bearing (degrees) Battery (%) GPS flag
10:02:07 44.566852 38.174408 4 75.208483418484 2.0610666275024 118.7947845459 87 1 delete
10:02:04 44.566885 38.174324 6 75.343001318022 2.0386636257172 129.95025634766 87 1 delete
10:02:01 44.566928 38.174236 6 75.654858404503 2.0298340320587 117.434715271 87 1 delete
10:01:58 44.566959 38.174160 8 75.761352010159 2.0676012039185 117.5076751709 87 1 delete
10:01:55 44.566983 38.174067 6 75.917179792274 2.1211371421814 70.391532897949 87 1 delete
10:01:52 44.566963 38.173963 6 75.877762159145 2.1504764556885 76.258712768555 87 1 delete
10:01:49 44.566941 38.173864 6 75.914359945284 2.0744299888611 41.602310180664 87 1 delete
10:01:46 44.566887 38.173791 4 75.993185071804 1.9710556268692 47.271369934082 87 1 delete
10:01:43 44.566825 38.173705 6 76.15173558988 1.8802087306976 46.407455444336 87 1 delete
10:01:40 44.566773 38.173633 6 76.413332445822 1.7914555072784 3.186017036438 87 1 delete
10:01:37 44.566712 38.173603 8 76.635720233331 1.6880571842194 10.810005187988 87 1 delete
10:01:34 44.566662 38.173593 6 76.736545428 1.6171679496765 14.700614929199 87 1 delete
10:01:31 44.566575 38.173580 8 76.964104476579 1.392290353775 331.03115844727 87 1 delete
10:01:28 44.566479 38.173581 8 77.139167767918 1.2945210933685 347.85046386719 87 1 delete
10:01:25 44.566386 38.173611 8 77.551763567569 1.1694346666336 344.12991333008 87 1 delete
10:01:19 44.566333 38.173636 6 78.112109917357 1.19915163517 16.509557723999 87 1 delete
10:01:16 44.566283 38.173617 8 78.437285673542 1.1819266080856 5.1813378334045 87 1 delete
10:01:13 44.566222 38.173586 8 78.868585013909 1.1686297655106 15.918158531189 87 1 delete
10:01:07 44.566125 38.173560 8 79.441477186092 1.2358626127243 356.53131103516 87 1 delete
10:01:01 44.566028 38.173560 8 80.667023040558 1.0094225406647 353.775390625 87 1 delete
10:00:55 44.565969 38.173527 8 81.743151937997 0.90791016817093 354.935546875 87 1 delete
10:00:49 44.565912 38.173529 8 82.303828860034 0.9885481595993 76.25186920166 87 1 delete
10:00:43 44.565872 38.173420 8 83.461746531088 0.49368670582771 95.104927062988 87 1 delete
10:00:37 44.565872 38.173345 6 84.884774611413 0.65206807851791 46.958190917969 87 1 delete
10:00:31 44.565856 38.173304 12 85.66142665966 0.24490891396999 111.44638061523 87 1 delete
10:00:25 44.565848 38.173269 8 86.611144483212 0.40492352843285 82.92357635498 87 1 delete
10:00:19 44.565823 38.173204 8 87.748787914607 0.78078860044479 61.535610198975 87 1 delete
10:00:10 44.565773 38.173157 6 89.073201891196 1.3564426898956 39.63370513916 87 1 delete
10:00:07 44.565724 38.173110 8 89.647244457281 1.3804441690445 72.95304107666 87 1 delete
10:00:04 44.565711 38.173021 8 90.443439467443 1.4077154397964 84.501091003418 87 1 delete
10:00:01 44.565687 38.172926 6 91.201736016638 1.0766280889511 53.574295043945 87 1 delete
09:59:55 44.565660 38.172830 8 93.231872596533 0.75391805171967 94.794273376465 87 1 delete
09:59:46 44.565622 38.172763 8 95.894783927242 1.564133644104 44.798259735107 87 1 delete
09:59:43 44.565572 38.172713 8 96.933809225119 1.6217379570007 46.05598449707 87 1 delete
09:59:40 44.565521 38.172623 12 97.904425524071 1.5672974586487 82.758811950684 87 1 delete
09:59:37 44.565482 38.172545 6 98.98848110329 1.2816669940948 49.160087585449 87 1 delete
09:59:34 44.565432 38.172501 8 99.628332119831 1.3179588317871 23.749765396118 87 1 delete
09:59:31 44.565387 38.172463 8 100.25534268067 1.4412250518799 42.422798156738 87 1 delete
09:59:22 44.565275 38.172401 8 101.77105387723 1.2027490139008 30.721380233765 87 1 delete
09:59:19 44.565217 38.172356 8 102.24207860596 0.65798616409302 17.479396820068 87 1 delete
09:59:16 44.565191 38.172337 8 102.66636435779 0.86847412586212 84.656860351562 87 1 delete
09:59:13 44.565176 38.172312 8 103.22105947279 1.2016769647598 352.41720581055 87 1 delete
09:59:04 44.565101 38.172302 8 104.77911695282 1.4023274183273 14.096753120422 87 1 delete
09:59:01 44.565056 38.172270 8 105.1372545188 1.4215523004532 32.10816192627 87 1 delete
09:58:58 44.564998 38.172233 8 105.57615131014 1.3523559570312 59.760299682617 87 1 delete
09:58:55 44.564967 38.172146 8 105.83648517688 1.1849657297134 87.7822265625 87 1 delete
09:58:49 44.564905 38.171993 8 106.16163800458 1.1043970584869 8.0134334564209 87 1 delete
09:58:46 44.564852 38.171994 8 106.15311925107 1.1389355659485 7.4626626968384 87 1 delete
09:58:40 44.564778 38.171988 8 105.9425478259 1.2611123323441 29.635650634766 87 1 delete
09:58:37 44.564735 38.171973 8 105.90623760403 1.2732303142548 1.3762564659119 87 1 delete